sensor_id;sensor_type;location;lat;lon;timestamp;temperature;humidity
25871;DHT22;13689;48.590;7.752;2024-01-30T00:01:21;7.20;92.20
25871;DHT22;13689;48.590;7.752;2024-01-30T00:03:46;7.20;92.20
25871;DHT22;13689;48.590;7.752;2024-01-30T00:06:12;7.20;92.20
25871;DHT22;13689;48.590;7.752;2024-01-30T00:08:37;7.20;92.20
25871;DHT22;13689;48.590;7.752;2024-01-30T00:11:03;7.20;92.20
25871;DHT22;13689;48.590;7.752;2024-01-30T00:13:29;7.20;92.20
25871;DHT22;13689;48.590;7.752;2024-01-30T00:15:54;7.10;92.20
25871;DHT22;13689;48.590;7.752;2024-01-30T00:18:20;7.10;92.30
25871;DHT22;13689;48.590;7.752;2024-01-30T00:20:47;7.10;92.30
25871;DHT22;13689;48.590;7.752;2024-01-30T00:23:13;7.00;92.30
25871;DHT22;13689;48.590;7.752;2024-01-30T00:25:39;7.00;92.30
25871;DHT22;13689;48.590;7.752;2024-01-30T00:28:04;7.00;92.40
25871;DHT22;13689;48.590;7.752;2024-01-30T00:30:30;7.00;92.40
25871;DHT22;13689;48.590;7.752;2024-01-30T00:32:56;7.00;92.40
25871;DHT22;13689;48.590;7.752;2024-01-30T00:35:21;6.90;92.40
25871;DHT22;13689;48.590;7.752;2024-01-30T00:37:48;7.00;92.50
25871;DHT22;13689;48.590;7.752;2024-01-30T00:40:14;6.90;92.40
25871;DHT22;13689;48.590;7.752;2024-01-30T00:42:44;6.90;92.40
25871;DHT22;13689;48.590;7.752;2024-01-30T00:45:16;6.90;92.40
25871;DHT22;13689;48.590;7.752;2024-01-30T00:47:42;6.90;92.30
25871;DHT22;13689;48.590;7.752;2024-01-30T00:50:08;6.80;92.30
25871;DHT22;13689;48.590;7.752;2024-01-30T00:52:34;6.80;92.40
25871;DHT22;13689;48.590;7.752;2024-01-30T00:55:00;6.80;92.40
25871;DHT22;13689;48.590;7.752;2024-01-30T00:57:26;6.80;92.50
25871;DHT22;13689;48.590;7.752;2024-01-30T00:59:52;6.70;92.50
25871;DHT22;13689;48.590;7.752;2024-01-30T01:02:18;6.70;92.50
25871;DHT22;13689;48.590;7.752;2024-01-30T01:04:44;6.70;92.50
25871;DHT22;13689;48.590;7.752;2024-01-30T01:07:10;6.70;92.60
25871;DHT22;13689;48.590;7.752;2024-01-30T01:09:36;6.70;92.60
25871;DHT22;13689;48.590;7.752;2024-01-30T01:12:02;6.70;92.50
25871;DHT22;13689;48.590;7.752;2024-01-30T01:14:27;6.70;92.60
25871;DHT22;13689;48.590;7.752;2024-01-30T01:16:53;6.60;92.50
25871;DHT22;13689;48.590;7.752;2024-01-30T01:19:19;6.60;92.50
25871;DHT22;13689;48.590;7.752;2024-01-30T01:21:44;6.60;92.60
25871;DHT22;13689;48.590;7.752;2024-01-30T01:24:10;6.60;92.60
25871;DHT22;13689;48.590;7.752;2024-01-30T01:26:35;6.60;92.60
25871;DHT22;13689;48.590;7.752;2024-01-30T01:29:01;6.60;92.60
25871;DHT22;13689;48.590;7.752;2024-01-30T01:31:26;6.50;92.70
25871;DHT22;13689;48.590;7.752;2024-01-30T01:33:54;6.50;92.70
25871;DHT22;13689;48.590;7.752;2024-01-30T01:36:20;6.50;92.70
25871;DHT22;13689;48.590;7.752;2024-01-30T01:38:46;6.50;92.70
25871;DHT22;13689;48.590;7.752;2024-01-30T01:41:11;6.50;92.70
25871;DHT22;13689;48.590;7.752;2024-01-30T01:43:37;6.50;92.70
25871;DHT22;13689;48.590;7.752;2024-01-30T01:46:05;6.50;92.70
25871;DHT22;13689;48.590;7.752;2024-01-30T01:48:30;6.60;92.70
25871;DHT22;13689;48.590;7.752;2024-01-30T01:50:56;6.60;92.70
25871;DHT22;13689;48.590;7.752;2024-01-30T01:53:22;6.60;92.70
25871;DHT22;13689;48.590;7.752;2024-01-30T01:55:48;6.60;92.70
25871;DHT22;13689;48.590;7.752;2024-01-30T01:58:14;6.60;92.70
25871;DHT22;13689;48.590;7.752;2024-01-30T02:00:40;6.60;92.70
25871;DHT22;13689;48.590;7.752;2024-01-30T02:03:09;6.70;92.70
25871;DHT22;13689;48.590;7.752;2024-01-30T02:05:36;6.70;92.80
25871;DHT22;13689;48.590;7.752;2024-01-30T02:08:02;6.70;92.70
25871;DHT22;13689;48.590;7.752;2024-01-30T02:10:28;6.70;92.80
25871;DHT22;13689;48.590;7.752;2024-01-30T02:12:54;6.70;92.80
25871;DHT22;13689;48.590;7.752;2024-01-30T02:15:19;6.70;92.80
25871;DHT22;13689;48.590;7.752;2024-01-30T02:17:45;6.70;92.80
25871;DHT22;13689;48.590;7.752;2024-01-30T02:20:11;6.80;92.80
25871;DHT22;13689;48.590;7.752;2024-01-30T02:22:37;6.80;92.90
25871;DHT22;13689;48.590;7.752;2024-01-30T02:25:04;6.80;92.90
25871;DHT22;13689;48.590;7.752;2024-01-30T02:27:29;6.80;92.90
25871;DHT22;13689;48.590;7.752;2024-01-30T02:29:55;6.80;92.90
25871;DHT22;13689;48.590;7.752;2024-01-30T02:32:21;6.80;92.90
25871;DHT22;13689;48.590;7.752;2024-01-30T02:34:46;6.80;92.90
25871;DHT22;13689;48.590;7.752;2024-01-30T02:37:12;6.80;92.90
25871;DHT22;13689;48.590;7.752;2024-01-30T02:39:37;6.80;92.90
25871;DHT22;13689;48.590;7.752;2024-01-30T02:42:03;6.90;93.00
25871;DHT22;13689;48.590;7.752;2024-01-30T02:44:29;6.90;93.00
25871;DHT22;13689;48.590;7.752;2024-01-30T02:46:54;6.80;92.90
25871;DHT22;13689;48.590;7.752;2024-01-30T02:49:20;6.90;93.00
25871;DHT22;13689;48.590;7.752;2024-01-30T02:51:46;6.80;93.00
25871;DHT22;13689;48.590;7.752;2024-01-30T02:54:12;6.80;92.90
25871;DHT22;13689;48.590;7.752;2024-01-30T02:56:37;6.80;92.90
25871;DHT22;13689;48.590;7.752;2024-01-30T02:59:03;6.80;92.90
25871;DHT22;13689;48.590;7.752;2024-01-30T03:01:29;6.80;92.90
25871;DHT22;13689;48.590;7.752;2024-01-30T03:03:54;6.80;92.90
25871;DHT22;13689;48.590;7.752;2024-01-30T03:06:20;6.80;92.90
25871;DHT22;13689;48.590;7.752;2024-01-30T03:08:47;6.80;92.90
25871;DHT22;13689;48.590;7.752;2024-01-30T03:11:12;6.80;92.90
25871;DHT22;13689;48.590;7.752;2024-01-30T03:13:38;6.70;92.80
25871;DHT22;13689;48.590;7.752;2024-01-30T03:16:04;6.70;92.80
25871;DHT22;13689;48.590;7.752;2024-01-30T03:18:29;6.70;92.80
25871;DHT22;13689;48.590;7.752;2024-01-30T03:20:55;6.70;92.80
25871;DHT22;13689;48.590;7.752;2024-01-30T03:23:20;6.60;92.80
25871;DHT22;13689;48.590;7.752;2024-01-30T03:25:46;6.60;92.80
25871;DHT22;13689;48.590;7.752;2024-01-30T03:28:11;6.50;92.70
25871;DHT22;13689;48.590;7.752;2024-01-30T03:30:37;6.50;92.70
25871;DHT22;13689;48.590;7.752;2024-01-30T03:33:03;6.50;92.70
25871;DHT22;13689;48.590;7.752;2024-01-30T03:35:29;6.40;92.70
25871;DHT22;13689;48.590;7.752;2024-01-30T03:37:54;6.40;92.80
25871;DHT22;13689;48.590;7.752;2024-01-30T03:40:20;6.30;92.70
25871;DHT22;13689;48.590;7.752;2024-01-30T03:42:45;6.40;92.80
25871;DHT22;13689;48.590;7.752;2024-01-30T03:45:11;6.40;92.80
25871;DHT22;13689;48.590;7.752;2024-01-30T03:47:37;6.40;92.80
25871;DHT22;13689;48.590;7.752;2024-01-30T03:50:02;6.40;92.80
25871;DHT22;13689;48.590;7.752;2024-01-30T03:52:30;6.30;92.70
25871;DHT22;13689;48.590;7.752;2024-01-30T03:54:55;6.30;92.70
25871;DHT22;13689;48.590;7.752;2024-01-30T03:57:21;6.30;92.70
25871;DHT22;13689;48.590;7.752;2024-01-30T03:59:47;6.30;92.60
25871;DHT22;13689;48.590;7.752;2024-01-30T04:02:12;6.30;92.60
25871;DHT22;13689;48.590;7.752;2024-01-30T04:04:38;6.30;92.60
25871;DHT22;13689;48.590;7.752;2024-01-30T04:07:04;6.30;92.60
25871;DHT22;13689;48.590;7.752;2024-01-30T04:09:29;6.30;92.60
25871;DHT22;13689;48.590;7.752;2024-01-30T04:11:55;6.30;92.60
25871;DHT22;13689;48.590;7.752;2024-01-30T04:14:21;6.30;92.60
25871;DHT22;13689;48.590;7.752;2024-01-30T04:16:47;6.30;92.60
25871;DHT22;13689;48.590;7.752;2024-01-30T04:19:12;6.30;92.60
25871;DHT22;13689;48.590;7.752;2024-01-30T04:21:39;6.30;92.60
25871;DHT22;13689;48.590;7.752;2024-01-30T04:24:05;6.30;92.60
25871;DHT22;13689;48.590;7.752;2024-01-30T04:26:31;6.30;92.60
25871;DHT22;13689;48.590;7.752;2024-01-30T04:28:56;6.30;92.60
25871;DHT22;13689;48.590;7.752;2024-01-30T04:31:22;6.30;92.60
25871;DHT22;13689;48.590;7.752;2024-01-30T04:33:47;6.30;92.60
25871;DHT22;13689;48.590;7.752;2024-01-30T04:36:13;6.30;92.60
25871;DHT22;13689;48.590;7.752;2024-01-30T04:38:39;6.30;92.60
25871;DHT22;13689;48.590;7.752;2024-01-30T04:41:05;6.30;92.60
25871;DHT22;13689;48.590;7.752;2024-01-30T04:43:30;6.20;92.50
25871;DHT22;13689;48.590;7.752;2024-01-30T04:45:56;6.20;92.90
25871;DHT22;13689;48.590;7.752;2024-01-30T04:48:21;6.10;92.50
25871;DHT22;13689;48.590;7.752;2024-01-30T04:50:47;6.10;92.50
25871;DHT22;13689;48.590;7.752;2024-01-30T04:53:13;6.00;92.50
25871;DHT22;13689;48.590;7.752;2024-01-30T04:55:38;6.10;92.60
25871;DHT22;13689;48.590;7.752;2024-01-30T04:58:04;6.10;92.60
25871;DHT22;13689;48.590;7.752;2024-01-30T05:00:29;6.00;92.50
25871;DHT22;13689;48.590;7.752;2024-01-30T05:02:56;6.00;92.50
25871;DHT22;13689;48.590;7.752;2024-01-30T05:05:21;6.10;92.50
25871;DHT22;13689;48.590;7.752;2024-01-30T05:07:47;6.00;92.50
25871;DHT22;13689;48.590;7.752;2024-01-30T05:10:13;6.00;92.50
25871;DHT22;13689;48.590;7.752;2024-01-30T05:12:39;6.00;92.80
25871;DHT22;13689;48.590;7.752;2024-01-30T05:15:05;6.00;92.50
25871;DHT22;13689;48.590;7.752;2024-01-30T05:17:31;6.00;92.40
25871;DHT22;13689;48.590;7.752;2024-01-30T05:19:57;6.00;92.50
25871;DHT22;13689;48.590;7.752;2024-01-30T05:22:23;6.10;92.60
25871;DHT22;13689;48.590;7.752;2024-01-30T05:24:48;6.10;92.60
25871;DHT22;13689;48.590;7.752;2024-01-30T05:27:14;6.10;92.50
25871;DHT22;13689;48.590;7.752;2024-01-30T05:29:40;6.00;92.40
25871;DHT22;13689;48.590;7.752;2024-01-30T05:32:06;6.10;92.40
25871;DHT22;13689;48.590;7.752;2024-01-30T05:34:32;6.10;92.50
25871;DHT22;13689;48.590;7.752;2024-01-30T05:36:58;6.10;92.60
25871;DHT22;13689;48.590;7.752;2024-01-30T05:39:23;6.10;92.50
25871;DHT22;13689;48.590;7.752;2024-01-30T05:41:49;6.20;92.50
25871;DHT22;13689;48.590;7.752;2024-01-30T05:44:14;6.20;92.50
25871;DHT22;13689;48.590;7.752;2024-01-30T05:46:40;6.20;92.50
25871;DHT22;13689;48.590;7.752;2024-01-30T05:49:06;6.20;92.50
25871;DHT22;13689;48.590;7.752;2024-01-30T05:51:31;6.30;92.50
25871;DHT22;13689;48.590;7.752;2024-01-30T05:53:57;6.30;92.50
25871;DHT22;13689;48.590;7.752;2024-01-30T05:56:22;6.30;92.50
25871;DHT22;13689;48.590;7.752;2024-01-30T05:58:48;6.30;92.40
25871;DHT22;13689;48.590;7.752;2024-01-30T06:01:15;6.30;92.50
25871;DHT22;13689;48.590;7.752;2024-01-30T06:03:41;6.20;92.80
25871;DHT22;13689;48.590;7.752;2024-01-30T06:06:08;6.20;92.50
25871;DHT22;13689;48.590;7.752;2024-01-30T06:08:34;6.30;92.50
25871;DHT22;13689;48.590;7.752;2024-01-30T06:11:00;6.20;92.50
25871;DHT22;13689;48.590;7.752;2024-01-30T06:13:26;6.20;92.50
25871;DHT22;13689;48.590;7.752;2024-01-30T06:15:52;6.30;92.50
25871;DHT22;13689;48.590;7.752;2024-01-30T06:18:18;6.20;92.50
25871;DHT22;13689;48.590;7.752;2024-01-30T06:20:43;6.30;92.40
25871;DHT22;13689;48.590;7.752;2024-01-30T06:23:09;6.20;92.50
25871;DHT22;13689;48.590;7.752;2024-01-30T06:25:35;6.30;92.40
25871;DHT22;13689;48.590;7.752;2024-01-30T06:28:01;6.30;92.40
25871;DHT22;13689;48.590;7.752;2024-01-30T06:30:26;6.30;92.40
25871;DHT22;13689;48.590;7.752;2024-01-30T06:32:52;6.30;92.40
25871;DHT22;13689;48.590;7.752;2024-01-30T06:35:17;6.20;92.40
25871;DHT22;13689;48.590;7.752;2024-01-30T06:37:43;6.20;92.40
25871;DHT22;13689;48.590;7.752;2024-01-30T06:40:09;6.30;92.40
25871;DHT22;13689;48.590;7.752;2024-01-30T06:42:36;6.20;92.40
25871;DHT22;13689;48.590;7.752;2024-01-30T06:45:02;6.30;92.40
25871;DHT22;13689;48.590;7.752;2024-01-30T06:47:27;6.20;92.40
25871;DHT22;13689;48.590;7.752;2024-01-30T06:49:54;6.20;92.30
25871;DHT22;13689;48.590;7.752;2024-01-30T06:52:20;6.20;92.40
25871;DHT22;13689;48.590;7.752;2024-01-30T06:54:45;6.30;92.40
25871;DHT22;13689;48.590;7.752;2024-01-30T06:57:11;6.30;92.30
25871;DHT22;13689;48.590;7.752;2024-01-30T06:59:37;6.30;92.30
25871;DHT22;13689;48.590;7.752;2024-01-30T07:02:09;6.30;92.20
25871;DHT22;13689;48.590;7.752;2024-01-30T07:04:35;6.30;92.30
25871;DHT22;13689;48.590;7.752;2024-01-30T07:07:02;6.30;92.20
25871;DHT22;13689;48.590;7.752;2024-01-30T07:09:28;6.30;92.20
25871;DHT22;13689;48.590;7.752;2024-01-30T07:11:54;6.30;92.20
25871;DHT22;13689;48.590;7.752;2024-01-30T07:14:20;6.30;92.20
25871;DHT22;13689;48.590;7.752;2024-01-30T07:16:46;6.40;92.20
25871;DHT22;13689;48.590;7.752;2024-01-30T07:19:12;6.40;92.20
25871;DHT22;13689;48.590;7.752;2024-01-30T07:21:37;6.40;92.20
25871;DHT22;13689;48.590;7.752;2024-01-30T07:24:05;6.40;92.20
25871;DHT22;13689;48.590;7.752;2024-01-30T07:26:31;6.50;92.20
25871;DHT22;13689;48.590;7.752;2024-01-30T07:28:57;6.50;92.10
25871;DHT22;13689;48.590;7.752;2024-01-30T07:31:22;6.50;92.10
25871;DHT22;13689;48.590;7.752;2024-01-30T07:33:48;6.50;92.10
25871;DHT22;13689;48.590;7.752;2024-01-30T07:36:14;6.50;92.10
25871;DHT22;13689;48.590;7.752;2024-01-30T07:38:39;6.60;92.10
25871;DHT22;13689;48.590;7.752;2024-01-30T07:41:05;6.60;92.10
25871;DHT22;13689;48.590;7.752;2024-01-30T07:43:31;6.60;92.10
25871;DHT22;13689;48.590;7.752;2024-01-30T07:45:57;6.60;92.00
25871;DHT22;13689;48.590;7.752;2024-01-30T07:48:22;6.60;92.00
25871;DHT22;13689;48.590;7.752;2024-01-30T07:50:48;6.70;92.00
25871;DHT22;13689;48.590;7.752;2024-01-30T07:53:13;6.70;91.90
25871;DHT22;13689;48.590;7.752;2024-01-30T07:55:39;6.70;91.90
25871;DHT22;13689;48.590;7.752;2024-01-30T07:58:05;6.80;92.00
25871;DHT22;13689;48.590;7.752;2024-01-30T08:00:30;6.80;91.90
25871;DHT22;13689;48.590;7.752;2024-01-30T08:02:56;6.80;91.90
25871;DHT22;13689;48.590;7.752;2024-01-30T08:05:22;6.90;91.90
25871;DHT22;13689;48.590;7.752;2024-01-30T08:07:49;6.90;91.80
25871;DHT22;13689;48.590;7.752;2024-01-30T08:10:15;6.90;91.70
25871;DHT22;13689;48.590;7.752;2024-01-30T08:12:41;6.90;91.80
25871;DHT22;13689;48.590;7.752;2024-01-30T08:15:07;6.90;91.70
25871;DHT22;13689;48.590;7.752;2024-01-30T08:17:33;6.90;91.70
25871;DHT22;13689;48.590;7.752;2024-01-30T08:19:59;7.00;91.70
25871;DHT22;13689;48.590;7.752;2024-01-30T08:22:25;7.00;91.60
25871;DHT22;13689;48.590;7.752;2024-01-30T08:24:50;7.10;91.60
25871;DHT22;13689;48.590;7.752;2024-01-30T08:27:16;7.10;91.60
25871;DHT22;13689;48.590;7.752;2024-01-30T08:29:42;7.10;91.50
25871;DHT22;13689;48.590;7.752;2024-01-30T08:32:07;7.10;91.50
25871;DHT22;13689;48.590;7.752;2024-01-30T08:34:33;7.10;91.40
25871;DHT22;13689;48.590;7.752;2024-01-30T08:36:59;7.20;91.40
25871;DHT22;13689;48.590;7.752;2024-01-30T08:39:24;7.20;91.30
25871;DHT22;13689;48.590;7.752;2024-01-30T08:41:50;7.20;91.30
25871;DHT22;13689;48.590;7.752;2024-01-30T08:44:16;7.20;91.30
25871;DHT22;13689;48.590;7.752;2024-01-30T08:46:43;7.20;91.20
25871;DHT22;13689;48.590;7.752;2024-01-30T08:49:08;7.30;91.20
25871;DHT22;13689;48.590;7.752;2024-01-30T08:51:34;7.30;91.20
25871;DHT22;13689;48.590;7.752;2024-01-30T08:54:00;7.30;91.20
25871;DHT22;13689;48.590;7.752;2024-01-30T08:56:25;7.40;91.10
25871;DHT22;13689;48.590;7.752;2024-01-30T08:58:51;7.40;91.00
25871;DHT22;13689;48.590;7.752;2024-01-30T09:01:17;7.40;91.00
25871;DHT22;13689;48.590;7.752;2024-01-30T09:03:42;7.50;91.00
25871;DHT22;13689;48.590;7.752;2024-01-30T09:06:11;7.60;91.00
25871;DHT22;13689;48.590;7.752;2024-01-30T09:08:37;7.60;90.90
25871;DHT22;13689;48.590;7.752;2024-01-30T09:11:13;7.70;90.90
25871;DHT22;13689;48.590;7.752;2024-01-30T09:13:39;7.70;90.80
25871;DHT22;13689;48.590;7.752;2024-01-30T09:16:06;7.70;90.70
25871;DHT22;13689;48.590;7.752;2024-01-30T09:18:32;7.70;90.70
25871;DHT22;13689;48.590;7.752;2024-01-30T09:20:57;7.80;90.70
25871;DHT22;13689;48.590;7.752;2024-01-30T09:23:24;7.80;90.60
25871;DHT22;13689;48.590;7.752;2024-01-30T09:25:50;7.80;90.50
25871;DHT22;13689;48.590;7.752;2024-01-30T09:28:17;7.80;90.50
25871;DHT22;13689;48.590;7.752;2024-01-30T09:30:42;7.80;90.40
25871;DHT22;13689;48.590;7.752;2024-01-30T09:33:08;7.80;90.30
25871;DHT22;13689;48.590;7.752;2024-01-30T09:35:33;7.90;90.40
25871;DHT22;13689;48.590;7.752;2024-01-30T09:37:59;7.90;90.30
25871;DHT22;13689;48.590;7.752;2024-01-30T09:40:25;8.00;90.30
25871;DHT22;13689;48.590;7.752;2024-01-30T09:42:51;8.10;90.30
25871;DHT22;13689;48.590;7.752;2024-01-30T09:45:23;8.20;90.20
25871;DHT22;13689;48.590;7.752;2024-01-30T09:47:49;8.20;90.10
25871;DHT22;13689;48.590;7.752;2024-01-30T09:50:15;8.30;90.00
25871;DHT22;13689;48.590;7.752;2024-01-30T09:52:41;8.30;90.00
25871;DHT22;13689;48.590;7.752;2024-01-30T09:55:08;8.30;89.70
25871;DHT22;13689;48.590;7.752;2024-01-30T09:57:37;8.40;89.70
25871;DHT22;13689;48.590;7.752;2024-01-30T10:00:03;8.50;89.70
25871;DHT22;13689;48.590;7.752;2024-01-30T10:02:33;8.50;89.50
25871;DHT22;13689;48.590;7.752;2024-01-30T10:04:59;8.50;89.30
25871;DHT22;13689;48.590;7.752;2024-01-30T10:07:25;8.50;89.10
25871;DHT22;13689;48.590;7.752;2024-01-30T10:09:53;8.60;89.20
25871;DHT22;13689;48.590;7.752;2024-01-30T10:12:18;8.70;89.00
25871;DHT22;13689;48.590;7.752;2024-01-30T10:14:44;8.80;88.80
25871;DHT22;13689;48.590;7.752;2024-01-30T10:17:10;8.90;88.80
25871;DHT22;13689;48.590;7.752;2024-01-30T10:19:38;8.90;88.60
25871;DHT22;13689;48.590;7.752;2024-01-30T10:22:04;9.00;88.50
25871;DHT22;13689;48.590;7.752;2024-01-30T10:24:30;9.00;88.40
25871;DHT22;13689;48.590;7.752;2024-01-30T10:26:56;9.10;88.30
25871;DHT22;13689;48.590;7.752;2024-01-30T10:29:22;9.10;88.00
25871;DHT22;13689;48.590;7.752;2024-01-30T10:32:00;9.20;87.90
25871;DHT22;13689;48.590;7.752;2024-01-30T10:34:26;9.20;87.70
25871;DHT22;13689;48.590;7.752;2024-01-30T10:39:28;9.30;87.40
25871;DHT22;13689;48.590;7.752;2024-01-30T10:41:56;9.40;87.40
25871;DHT22;13689;48.590;7.752;2024-01-30T10:44:25;9.40;87.20
25871;DHT22;13689;48.590;7.752;2024-01-30T10:47:03;9.50;87.20
25871;DHT22;13689;48.590;7.752;2024-01-30T10:49:32;9.60;87.00
25871;DHT22;13689;48.590;7.752;2024-01-30T10:51:59;9.70;86.80
25871;DHT22;13689;48.590;7.752;2024-01-30T10:54:26;9.80;86.80
25871;DHT22;13689;48.590;7.752;2024-01-30T10:56:52;9.80;86.50
25871;DHT22;13689;48.590;7.752;2024-01-30T10:59:19;9.80;86.30
25871;DHT22;13689;48.590;7.752;2024-01-30T11:01:45;9.90;86.10
25871;DHT22;13689;48.590;7.752;2024-01-30T11:04:11;9.90;86.10
25871;DHT22;13689;48.590;7.752;2024-01-30T11:06:43;9.90;86.10
25871;DHT22;13689;48.590;7.752;2024-01-30T11:09:11;9.80;86.00
25871;DHT22;13689;48.590;7.752;2024-01-30T11:11:51;9.90;86.00
25871;DHT22;13689;48.590;7.752;2024-01-30T11:14:23;9.90;85.90
25871;DHT22;13689;48.590;7.752;2024-01-30T11:16:50;10.00;85.70
25871;DHT22;13689;48.590;7.752;2024-01-30T11:19:31;10.10;85.60
25871;DHT22;13689;48.590;7.752;2024-01-30T11:21:57;10.10;85.40
25871;DHT22;13689;48.590;7.752;2024-01-30T11:24:23;10.20;85.30
25871;DHT22;13689;48.590;7.752;2024-01-30T11:26:54;10.20;85.30
25871;DHT22;13689;48.590;7.752;2024-01-30T11:29:24;10.30;85.10
25871;DHT22;13689;48.590;7.752;2024-01-30T11:31:54;10.30;84.90
25871;DHT22;13689;48.590;7.752;2024-01-30T11:34:21;10.30;84.70
25871;DHT22;13689;48.590;7.752;2024-01-30T11:36:59;10.30;84.60
25871;DHT22;13689;48.590;7.752;2024-01-30T11:39:26;10.30;84.50
25871;DHT22;13689;48.590;7.752;2024-01-30T11:41:52;10.40;84.50
25871;DHT22;13689;48.590;7.752;2024-01-30T11:44:23;10.40;84.40
25871;DHT22;13689;48.590;7.752;2024-01-30T11:46:50;10.40;84.30
25871;DHT22;13689;48.590;7.752;2024-01-30T11:49:19;10.40;84.20
25871;DHT22;13689;48.590;7.752;2024-01-30T11:51:48;10.50;84.30
25871;DHT22;13689;48.590;7.752;2024-01-30T11:54:17;10.50;84.00
25871;DHT22;13689;48.590;7.752;2024-01-30T11:56:43;10.60;84.80
25871;DHT22;13689;48.590;7.752;2024-01-30T11:59:09;10.60;83.70
25871;DHT22;13689;48.590;7.752;2024-01-30T12:01:34;10.70;83.60
25871;DHT22;13689;48.590;7.752;2024-01-30T12:04:00;10.70;83.40
25871;DHT22;13689;48.590;7.752;2024-01-30T12:06:26;10.80;83.30
25871;DHT22;13689;48.590;7.752;2024-01-30T12:09:00;10.80;83.30
25871;DHT22;13689;48.590;7.752;2024-01-30T12:11:26;10.80;83.10
25871;DHT22;13689;48.590;7.752;2024-01-30T12:13:53;10.80;83.00
25871;DHT22;13689;48.590;7.752;2024-01-30T12:16:19;10.80;82.80
25871;DHT22;13689;48.590;7.752;2024-01-30T12:18:45;10.90;83.00
25871;DHT22;13689;48.590;7.752;2024-01-30T12:21:11;11.00;83.00
25871;DHT22;13689;48.590;7.752;2024-01-30T12:23:36;11.00;82.80
25871;DHT22;13689;48.590;7.752;2024-01-30T12:26:03;11.10;82.70
25871;DHT22;13689;48.590;7.752;2024-01-30T12:28:32;11.10;82.50
25871;DHT22;13689;48.590;7.752;2024-01-30T12:31:02;11.20;82.50
25871;DHT22;13689;48.590;7.752;2024-01-30T12:33:29;11.20;82.20
25871;DHT22;13689;48.590;7.752;2024-01-30T12:35:55;11.20;82.20
25871;DHT22;13689;48.590;7.752;2024-01-30T12:38:21;11.20;82.10
25871;DHT22;13689;48.590;7.752;2024-01-30T12:40:49;11.20;82.10
25871;DHT22;13689;48.590;7.752;2024-01-30T12:43:14;11.20;82.10
25871;DHT22;13689;48.590;7.752;2024-01-30T12:45:41;11.20;82.10
25871;DHT22;13689;48.590;7.752;2024-01-30T12:48:08;11.20;82.10
25871;DHT22;13689;48.590;7.752;2024-01-30T12:50:34;11.30;82.10
25871;DHT22;13689;48.590;7.752;2024-01-30T12:52:59;11.30;82.80
25871;DHT22;13689;48.590;7.752;2024-01-30T12:55:25;11.30;82.00
25871;DHT22;13689;48.590;7.752;2024-01-30T12:57:54;11.30;81.90
25871;DHT22;13689;48.590;7.752;2024-01-30T13:00:20;11.30;81.90
25871;DHT22;13689;48.590;7.752;2024-01-30T13:02:45;11.30;81.90
25871;DHT22;13689;48.590;7.752;2024-01-30T13:05:12;11.30;81.90
25871;DHT22;13689;48.590;7.752;2024-01-30T13:07:38;11.40;81.90
25871;DHT22;13689;48.590;7.752;2024-01-30T13:10:04;11.40;81.90
25871;DHT22;13689;48.590;7.752;2024-01-30T13:12:30;11.40;81.90
25871;DHT22;13689;48.590;7.752;2024-01-30T13:14:57;11.40;81.80
25871;DHT22;13689;48.590;7.752;2024-01-30T13:17:24;11.40;81.80
25871;DHT22;13689;48.590;7.752;2024-01-30T13:19:49;11.40;81.80
25871;DHT22;13689;48.590;7.752;2024-01-30T13:22:15;11.50;81.80
25871;DHT22;13689;48.590;7.752;2024-01-30T13:24:41;11.50;81.80
25871;DHT22;13689;48.590;7.752;2024-01-30T13:27:07;11.50;81.80
25871;DHT22;13689;48.590;7.752;2024-01-30T13:29:34;11.50;81.70
25871;DHT22;13689;48.590;7.752;2024-01-30T13:31:59;11.50;81.70
25871;DHT22;13689;48.590;7.752;2024-01-30T13:34:25;11.40;81.60
25871;DHT22;13689;48.590;7.752;2024-01-30T13:36:50;11.40;81.70
25871;DHT22;13689;48.590;7.752;2024-01-30T13:39:16;11.40;81.70
25871;DHT22;13689;48.590;7.752;2024-01-30T13:41:42;11.40;82.60
25871;DHT22;13689;48.590;7.752;2024-01-30T13:44:08;11.40;81.80
25871;DHT22;13689;48.590;7.752;2024-01-30T13:46:35;11.40;81.90
25871;DHT22;13689;48.590;7.752;2024-01-30T13:49:01;11.40;81.90
25871;DHT22;13689;48.590;7.752;2024-01-30T13:51:27;11.30;81.80
25871;DHT22;13689;48.590;7.752;2024-01-30T13:53:52;11.30;81.80
25871;DHT22;13689;48.590;7.752;2024-01-30T13:56:19;11.30;81.90
25871;DHT22;13689;48.590;7.752;2024-01-30T13:58:44;11.30;81.90
25871;DHT22;13689;48.590;7.752;2024-01-30T14:01:10;11.40;81.90
25871;DHT22;13689;48.590;7.752;2024-01-30T14:03:36;11.40;81.90
25871;DHT22;13689;48.590;7.752;2024-01-30T14:06:01;11.40;82.00
25871;DHT22;13689;48.590;7.752;2024-01-30T14:08:27;11.40;82.00
25871;DHT22;13689;48.590;7.752;2024-01-30T14:10:54;11.30;81.90
25871;DHT22;13689;48.590;7.752;2024-01-30T14:13:21;11.40;82.10
25871;DHT22;13689;48.590;7.752;2024-01-30T14:15:48;11.30;82.10
25871;DHT22;13689;48.590;7.752;2024-01-30T14:18:14;11.30;82.10
25871;DHT22;13689;48.590;7.752;2024-01-30T14:20:39;11.30;82.10
25871;DHT22;13689;48.590;7.752;2024-01-30T14:23:05;11.30;82.20
25871;DHT22;13689;48.590;7.752;2024-01-30T14:25:30;11.30;82.20
25871;DHT22;13689;48.590;7.752;2024-01-30T14:27:56;11.30;82.30
25871;DHT22;13689;48.590;7.752;2024-01-30T14:30:22;11.30;82.30
25871;DHT22;13689;48.590;7.752;2024-01-30T14:32:47;11.30;82.30
25871;DHT22;13689;48.590;7.752;2024-01-30T14:35:14;11.30;82.40
25871;DHT22;13689;48.590;7.752;2024-01-30T14:37:40;11.30;82.50
25871;DHT22;13689;48.590;7.752;2024-01-30T14:40:06;11.30;82.50
25871;DHT22;13689;48.590;7.752;2024-01-30T14:42:34;11.30;82.60
25871;DHT22;13689;48.590;7.752;2024-01-30T14:45:01;11.30;82.70
25871;DHT22;13689;48.590;7.752;2024-01-30T14:47:27;11.20;82.80
25871;DHT22;13689;48.590;7.752;2024-01-30T14:49:53;11.20;82.90
25871;DHT22;13689;48.590;7.752;2024-01-30T14:52:18;11.20;83.00
25871;DHT22;13689;48.590;7.752;2024-01-30T14:54:44;11.20;83.10
25871;DHT22;13689;48.590;7.752;2024-01-30T14:57:10;11.10;83.20
25871;DHT22;13689;48.590;7.752;2024-01-30T14:59:36;11.20;83.30
25871;DHT22;13689;48.590;7.752;2024-01-30T15:02:02;11.20;83.20
25871;DHT22;13689;48.590;7.752;2024-01-30T15:04:28;11.20;83.30
25871;DHT22;13689;48.590;7.752;2024-01-30T15:06:53;11.20;83.30
25871;DHT22;13689;48.590;7.752;2024-01-30T15:09:19;11.20;83.40
25871;DHT22;13689;48.590;7.752;2024-01-30T15:11:47;11.20;83.50
25871;DHT22;13689;48.590;7.752;2024-01-30T15:14:14;11.20;83.60
25871;DHT22;13689;48.590;7.752;2024-01-30T15:16:40;11.20;83.50
25871;DHT22;13689;48.590;7.752;2024-01-30T15:19:06;11.20;83.50
25871;DHT22;13689;48.590;7.752;2024-01-30T15:21:32;11.20;83.60
25871;DHT22;13689;48.590;7.752;2024-01-30T15:23:57;11.20;83.70
25871;DHT22;13689;48.590;7.752;2024-01-30T15:26:23;11.20;83.70
25871;DHT22;13689;48.590;7.752;2024-01-30T15:28:49;11.10;83.70
25871;DHT22;13689;48.590;7.752;2024-01-30T15:31:14;11.10;83.80
25871;DHT22;13689;48.590;7.752;2024-01-30T15:33:40;11.10;83.90
25871;DHT22;13689;48.590;7.752;2024-01-30T15:36:07;11.10;84.00
25871;DHT22;13689;48.590;7.752;2024-01-30T15:38:34;11.10;84.00